sensor_id;sensor_type;location;lat;lon;timestamp;temperature;humidity
12504;DHT22;6316;48.118;-1.690;2022-11-02T00:00:28;11.40;99.90
12504;DHT22;6316;48.118;-1.690;2022-11-02T00:02:54;11.40;99.90
12504;DHT22;6316;48.118;-1.690;2022-11-02T00:05:20;11.40;99.90
12504;DHT22;6316;48.118;-1.690;2022-11-02T00:07:55;11.40;99.90
12504;DHT22;6316;48.118;-1.690;2022-11-02T00:10:22;11.40;99.90
12504;DHT22;6316;48.118;-1.690;2022-11-02T00:12:48;11.40;99.90
12504;DHT22;6316;48.118;-1.690;2022-11-02T00:15:14;11.40;99.90
12504;DHT22;6316;48.118;-1.690;2022-11-02T00:17:42;11.40;99.90
12504;DHT22;6316;48.118;-1.690;2022-11-02T00:20:10;11.40;99.90
12504;DHT22;6316;48.118;-1.690;2022-11-02T00:22:37;11.40;99.90
12504;DHT22;6316;48.118;-1.690;2022-11-02T00:25:05;11.30;99.90
12504;DHT22;6316;48.118;-1.690;2022-11-02T00:27:32;11.30;99.90
12504;DHT22;6316;48.118;-1.690;2022-11-02T00:29:59;11.30;99.90
12504;DHT22;6316;48.118;-1.690;2022-11-02T00:32:25;11.30;99.90
12504;DHT22;6316;48.118;-1.690;2022-11-02T00:34:51;11.30;99.90
12504;DHT22;6316;48.118;-1.690;2022-11-02T00:37:17;11.40;99.90
12504;DHT22;6316;48.118;-1.690;2022-11-02T00:39:43;11.30;99.90
12504;DHT22;6316;48.118;-1.690;2022-11-02T00:42:09;11.30;99.90
12504;DHT22;6316;48.118;-1.690;2022-11-02T00:44:34;11.30;99.90
12504;DHT22;6316;48.118;-1.690;2022-11-02T00:47:00;11.30;99.90
12504;DHT22;6316;48.118;-1.690;2022-11-02T00:49:25;11.30;99.90
12504;DHT22;6316;48.118;-1.690;2022-11-02T00:51:51;11.30;99.90
12504;DHT22;6316;48.118;-1.690;2022-11-02T00:54:17;11.30;99.90
12504;DHT22;6316;48.118;-1.690;2022-11-02T00:56:42;11.30;99.90
12504;DHT22;6316;48.118;-1.690;2022-11-02T00:59:08;11.20;99.90
12504;DHT22;6316;48.118;-1.690;2022-11-02T01:01:34;11.20;99.90
12504;DHT22;6316;48.118;-1.690;2022-11-02T01:03:59;11.20;99.90
12504;DHT22;6316;48.118;-1.690;2022-11-02T01:06:25;11.20;99.90
12504;DHT22;6316;48.118;-1.690;2022-11-02T01:08:51;11.20;99.90
12504;DHT22;6316;48.118;-1.690;2022-11-02T01:11:19;11.20;99.90
12504;DHT22;6316;48.118;-1.690;2022-11-02T01:13:45;11.20;99.90
12504;DHT22;6316;48.118;-1.690;2022-11-02T01:16:12;11.20;99.90
12504;DHT22;6316;48.118;-1.690;2022-11-02T01:18:39;11.20;99.90
12504;DHT22;6316;48.118;-1.690;2022-11-02T01:21:05;11.20;99.90
12504;DHT22;6316;48.118;-1.690;2022-11-02T01:23:32;11.10;99.90
12504;DHT22;6316;48.118;-1.690;2022-11-02T01:25:58;11.10;99.90
12504;DHT22;6316;48.118;-1.690;2022-11-02T01:28:26;11.10;99.90
12504;DHT22;6316;48.118;-1.690;2022-11-02T01:30:52;11.10;99.90
12504;DHT22;6316;48.118;-1.690;2022-11-02T01:33:17;11.10;99.90
12504;DHT22;6316;48.118;-1.690;2022-11-02T01:35:43;11.10;99.90
12504;DHT22;6316;48.118;-1.690;2022-11-02T01:38:08;11.10;99.90
12504;DHT22;6316;48.118;-1.690;2022-11-02T01:40:38;11.10;99.90
12504;DHT22;6316;48.118;-1.690;2022-11-02T01:43:24;11.10;99.90
12504;DHT22;6316;48.118;-1.690;2022-11-02T01:46:15;11.10;99.90
12504;DHT22;6316;48.118;-1.690;2022-11-02T01:51:31;11.10;99.90
12504;DHT22;6316;48.118;-1.690;2022-11-02T01:54:01;11.10;99.90
12504;DHT22;6316;48.118;-1.690;2022-11-02T01:56:31;11.00;99.90
12504;DHT22;6316;48.118;-1.690;2022-11-02T01:59:00;11.00;99.90
12504;DHT22;6316;48.118;-1.690;2022-11-02T02:01:27;11.00;99.90
12504;DHT22;6316;48.118;-1.690;2022-11-02T02:03:53;11.00;99.90
12504;DHT22;6316;48.118;-1.690;2022-11-02T02:06:20;11.00;99.90
12504;DHT22;6316;48.118;-1.690;2022-11-02T02:08:48;11.00;99.90
12504;DHT22;6316;48.118;-1.690;2022-11-02T02:11:33;11.00;99.90
12504;DHT22;6316;48.118;-1.690;2022-11-02T02:14:09;11.00;99.90
12504;DHT22;6316;48.118;-1.690;2022-11-02T02:30:16;10.90;99.90
12504;DHT22;6316;48.118;-1.690;2022-11-02T02:32:55;10.90;99.90
12504;DHT22;6316;48.118;-1.690;2022-11-02T02:38:01;10.90;99.90
12504;DHT22;6316;48.118;-1.690;2022-11-02T02:40:32;10.90;99.90
12504;DHT22;6316;48.118;-1.690;2022-11-02T02:43:28;10.90;99.90
12504;DHT22;6316;48.118;-1.690;2022-11-02T02:46:26;10.90;99.90
12504;DHT22;6316;48.118;-1.690;2022-11-02T02:48:55;10.90;99.90
12504;DHT22;6316;48.118;-1.690;2022-11-02T02:51:27;10.90;99.90
12504;DHT22;6316;48.118;-1.690;2022-11-02T02:56:26;10.80;99.90
12504;DHT22;6316;48.118;-1.690;2022-11-02T03:01:25;10.80;99.90
12504;DHT22;6316;48.118;-1.690;2022-11-02T03:03:51;10.80;99.90
12504;DHT22;6316;48.118;-1.690;2022-11-02T03:06:23;10.80;99.90
12504;DHT22;6316;48.118;-1.690;2022-11-02T03:12:03;10.80;99.90
12504;DHT22;6316;48.118;-1.690;2022-11-02T03:14:45;10.80;99.90
12504;DHT22;6316;48.118;-1.690;2022-11-02T03:17:24;10.70;99.90
12504;DHT22;6316;48.118;-1.690;2022-11-02T03:31:23;10.60;99.90
12504;DHT22;6316;48.118;-1.690;2022-11-02T03:34:31;10.60;99.90
12504;DHT22;6316;48.118;-1.690;2022-11-02T03:37:19;10.60;99.90
12504;DHT22;6316;48.118;-1.690;2022-11-02T03:39:52;10.60;99.90
12504;DHT22;6316;48.118;-1.690;2022-11-02T03:42:22;10.60;99.90
12504;DHT22;6316;48.118;-1.690;2022-11-02T03:44:52;10.60;99.90
12504;DHT22;6316;48.118;-1.690;2022-11-02T03:47:20;10.60;99.90
12504;DHT22;6316;48.118;-1.690;2022-11-02T03:49:47;10.60;99.90
12504;DHT22;6316;48.118;-1.690;2022-11-02T03:52:19;10.50;99.90
12504;DHT22;6316;48.118;-1.690;2022-11-02T03:54:52;10.50;99.90
12504;DHT22;6316;48.118;-1.690;2022-11-02T03:57:29;10.50;99.90
12504;DHT22;6316;48.118;-1.690;2022-11-02T04:00:08;10.50;99.90
12504;DHT22;6316;48.118;-1.690;2022-11-02T04:02:35;10.50;99.90
12504;DHT22;6316;48.118;-1.690;2022-11-02T04:05:02;10.50;99.90
12504;DHT22;6316;48.118;-1.690;2022-11-02T04:07:31;10.50;99.90
12504;DHT22;6316;48.118;-1.690;2022-11-02T04:10:18;10.50;99.90
12504;DHT22;6316;48.118;-1.690;2022-11-02T04:12:43;10.50;99.90
12504;DHT22;6316;48.118;-1.690;2022-11-02T04:15:27;10.50;99.90
12504;DHT22;6316;48.118;-1.690;2022-11-02T04:17:53;10.40;99.90
12504;DHT22;6316;48.118;-1.690;2022-11-02T04:20:37;10.40;99.90
12504;DHT22;6316;48.118;-1.690;2022-11-02T04:23:03;10.50;99.90
12504;DHT22;6316;48.118;-1.690;2022-11-02T04:25:54;10.40;99.90
12504;DHT22;6316;48.118;-1.690;2022-11-02T04:28:20;10.40;99.90
12504;DHT22;6316;48.118;-1.690;2022-11-02T04:30:46;10.40;99.90
12504;DHT22;6316;48.118;-1.690;2022-11-02T04:33:12;10.40;99.90
12504;DHT22;6316;48.118;-1.690;2022-11-02T04:36:01;10.40;99.90
12504;DHT22;6316;48.118;-1.690;2022-11-02T04:38:29;10.40;99.90
12504;DHT22;6316;48.118;-1.690;2022-11-02T04:41:11;10.40;99.90
12504;DHT22;6316;48.118;-1.690;2022-11-02T04:43:55;10.30;99.90
12504;DHT22;6316;48.118;-1.690;2022-11-02T04:46:22;10.30;99.90
12504;DHT22;6316;48.118;-1.690;2022-11-02T04:48:48;10.30;99.90
12504;DHT22;6316;48.118;-1.690;2022-11-02T04:51:14;10.30;99.90
12504;DHT22;6316;48.118;-1.690;2022-11-02T04:53:40;10.30;99.90
12504;DHT22;6316;48.118;-1.690;2022-11-02T04:56:06;10.30;99.90
12504;DHT22;6316;48.118;-1.690;2022-11-02T04:58:31;10.20;99.90
12504;DHT22;6316;48.118;-1.690;2022-11-02T05:00:57;10.20;99.90
12504;DHT22;6316;48.118;-1.690;2022-11-02T05:03:23;10.20;99.90
12504;DHT22;6316;48.118;-1.690;2022-11-02T05:05:53;10.20;99.90
12504;DHT22;6316;48.118;-1.690;2022-11-02T05:08:19;10.20;99.90
12504;DHT22;6316;48.118;-1.690;2022-11-02T05:10:45;10.20;99.90
12504;DHT22;6316;48.118;-1.690;2022-11-02T05:13:10;10.20;99.90
12504;DHT22;6316;48.118;-1.690;2022-11-02T05:15:39;10.20;99.90
12504;DHT22;6316;48.118;-1.690;2022-11-02T05:18:05;10.20;99.90
12504;DHT22;6316;48.118;-1.690;2022-11-02T05:20:33;10.20;99.90
12504;DHT22;6316;48.118;-1.690;2022-11-02T05:22:59;10.20;99.90
12504;DHT22;6316;48.118;-1.690;2022-11-02T05:25:25;10.20;99.90
12504;DHT22;6316;48.118;-1.690;2022-11-02T05:27:50;10.20;99.90
12504;DHT22;6316;48.118;-1.690;2022-11-02T05:30:16;10.20;99.90
12504;DHT22;6316;48.118;-1.690;2022-11-02T05:32:42;10.20;99.90
12504;DHT22;6316;48.118;-1.690;2022-11-02T05:35:08;10.20;99.90
12504;DHT22;6316;48.118;-1.690;2022-11-02T05:37:33;10.10;99.90
12504;DHT22;6316;48.118;-1.690;2022-11-02T05:39:59;10.10;99.90
12504;DHT22;6316;48.118;-1.690;2022-11-02T05:42:25;10.10;99.90
12504;DHT22;6316;48.118;-1.690;2022-11-02T05:44:50;10.10;99.90
12504;DHT22;6316;48.118;-1.690;2022-11-02T05:47:16;10.10;99.90
12504;DHT22;6316;48.118;-1.690;2022-11-02T05:49:41;10.10;99.90
12504;DHT22;6316;48.118;-1.690;2022-11-02T05:52:07;10.10;99.90
12504;DHT22;6316;48.118;-1.690;2022-11-02T05:54:33;10.00;99.90
12504;DHT22;6316;48.118;-1.690;2022-11-02T05:56:58;10.00;99.90
12504;DHT22;6316;48.118;-1.690;2022-11-02T05:59:24;10.00;99.90
12504;DHT22;6316;48.118;-1.690;2022-11-02T06:01:49;10.00;99.90
12504;DHT22;6316;48.118;-1.690;2022-11-02T06:04:15;10.00;99.90
12504;DHT22;6316;48.118;-1.690;2022-11-02T06:06:42;10.00;99.90
12504;DHT22;6316;48.118;-1.690;2022-11-02T06:09:07;10.00;99.90
12504;DHT22;6316;48.118;-1.690;2022-11-02T06:11:33;10.00;99.90
12504;DHT22;6316;48.118;-1.690;2022-11-02T06:13:59;10.00;99.90
12504;DHT22;6316;48.118;-1.690;2022-11-02T06:16:25;10.00;99.90
12504;DHT22;6316;48.118;-1.690;2022-11-02T06:18:50;10.00;99.90
12504;DHT22;6316;48.118;-1.690;2022-11-02T06:21:16;10.00;99.90
12504;DHT22;6316;48.118;-1.690;2022-11-02T06:23:41;10.00;99.90
12504;DHT22;6316;48.118;-1.690;2022-11-02T06:26:09;9.90;99.90
12504;DHT22;6316;48.118;-1.690;2022-11-02T06:28:35;9.90;99.90
12504;DHT22;6316;48.118;-1.690;2022-11-02T06:31:01;9.90;99.90
12504;DHT22;6316;48.118;-1.690;2022-11-02T06:33:26;10.00;99.90
12504;DHT22;6316;48.118;-1.690;2022-11-02T06:35:54;10.00;99.90
12504;DHT22;6316;48.118;-1.690;2022-11-02T06:38:20;10.00;99.90
12504;DHT22;6316;48.118;-1.690;2022-11-02T06:41:02;10.00;99.90
12504;DHT22;6316;48.118;-1.690;2022-11-02T06:43:30;10.00;99.90
12504;DHT22;6316;48.118;-1.690;2022-11-02T06:45:57;10.00;99.90
12504;DHT22;6316;48.118;-1.690;2022-11-02T06:48:23;10.00;99.90
12504;DHT22;6316;48.118;-1.690;2022-11-02T06:50:49;10.00;99.90
12504;DHT22;6316;48.118;-1.690;2022-11-02T06:53:14;10.00;99.90
12504;DHT22;6316;48.118;-1.690;2022-11-02T06:55:40;10.00;99.90
12504;DHT22;6316;48.118;-1.690;2022-11-02T06:58:06;10.00;99.90
12504;DHT22;6316;48.118;-1.690;2022-11-02T07:00:31;10.00;99.90
12504;DHT22;6316;48.118;-1.690;2022-11-02T07:03:06;10.00;99.90
12504;DHT22;6316;48.118;-1.690;2022-11-02T07:05:34;10.10;99.90
12504;DHT22;6316;48.118;-1.690;2022-11-02T07:08:00;10.10;99.90
12504;DHT22;6316;48.118;-1.690;2022-11-02T07:10:26;10.10;99.90
12504;DHT22;6316;48.118;-1.690;2022-11-02T07:12:53;10.10;99.90
12504;DHT22;6316;48.118;-1.690;2022-11-02T07:15:20;10.20;99.90
12504;DHT22;6316;48.118;-1.690;2022-11-02T07:17:46;10.20;99.90
12504;DHT22;6316;48.118;-1.690;2022-11-02T07:20:11;10.20;99.90
12504;DHT22;6316;48.118;-1.690;2022-11-02T07:22:37;10.30;99.90
12504;DHT22;6316;48.118;-1.690;2022-11-02T07:25:03;10.30;99.90
12504;DHT22;6316;48.118;-1.690;2022-11-02T07:27:29;10.30;99.90
12504;DHT22;6316;48.118;-1.690;2022-11-02T07:29:54;10.40;99.90
12504;DHT22;6316;48.118;-1.690;2022-11-02T07:32:20;10.50;99.90
12504;DHT22;6316;48.118;-1.690;2022-11-02T07:34:46;10.50;99.90
12504;DHT22;6316;48.118;-1.690;2022-11-02T07:37:11;10.60;99.90
12504;DHT22;6316;48.118;-1.690;2022-11-02T07:39:37;10.60;99.90
12504;DHT22;6316;48.118;-1.690;2022-11-02T07:42:03;10.60;99.90
12504;DHT22;6316;48.118;-1.690;2022-11-02T07:44:31;10.70;99.90
12504;DHT22;6316;48.118;-1.690;2022-11-02T07:46:56;10.70;99.90
12504;DHT22;6316;48.118;-1.690;2022-11-02T07:49:22;10.80;99.90
12504;DHT22;6316;48.118;-1.690;2022-11-02T07:51:48;10.90;99.90
12504;DHT22;6316;48.118;-1.690;2022-11-02T07:54:13;10.90;99.90
12504;DHT22;6316;48.118;-1.690;2022-11-02T07:56:39;11.00;99.90
12504;DHT22;6316;48.118;-1.690;2022-11-02T07:59:04;11.00;99.90
12504;DHT22;6316;48.118;-1.690;2022-11-02T08:01:30;11.10;99.90
12504;DHT22;6316;48.118;-1.690;2022-11-02T08:03:56;11.10;99.90
12504;DHT22;6316;48.118;-1.690;2022-11-02T08:06:22;11.20;99.90
12504;DHT22;6316;48.118;-1.690;2022-11-02T08:08:48;11.20;99.90
12504;DHT22;6316;48.118;-1.690;2022-11-02T08:11:13;11.30;99.90
12504;DHT22;6316;48.118;-1.690;2022-11-02T08:13:39;11.30;99.90
12504;DHT22;6316;48.118;-1.690;2022-11-02T08:16:05;11.40;99.90
12504;DHT22;6316;48.118;-1.690;2022-11-02T08:18:31;11.40;99.90
12504;DHT22;6316;48.118;-1.690;2022-11-02T08:20:58;11.50;99.90
12504;DHT22;6316;48.118;-1.690;2022-11-02T08:23:25;11.50;99.90
12504;DHT22;6316;48.118;-1.690;2022-11-02T08:25:52;11.50;99.90
12504;DHT22;6316;48.118;-1.690;2022-11-02T08:28:27;11.60;99.90
12504;DHT22;6316;48.118;-1.690;2022-11-02T08:30:53;11.60;99.90
12504;DHT22;6316;48.118;-1.690;2022-11-02T08:33:19;11.70;99.90
12504;DHT22;6316;48.118;-1.690;2022-11-02T08:35:46;11.70;99.90
12504;DHT22;6316;48.118;-1.690;2022-11-02T08:38:12;11.80;99.90
12504;DHT22;6316;48.118;-1.690;2022-11-02T08:40:38;11.90;99.90
12504;DHT22;6316;48.118;-1.690;2022-11-02T08:43:07;11.90;99.90
12504;DHT22;6316;48.118;-1.690;2022-11-02T08:45:34;12.00;99.90
12504;DHT22;6316;48.118;-1.690;2022-11-02T08:48:00;12.00;99.90
12504;DHT22;6316;48.118;-1.690;2022-11-02T08:50:26;12.10;99.90
12504;DHT22;6316;48.118;-1.690;2022-11-02T08:52:52;12.10;99.90
12504;DHT22;6316;48.118;-1.690;2022-11-02T08:55:18;12.20;99.90
12504;DHT22;6316;48.118;-1.690;2022-11-02T09:00:10;12.20;99.90
12504;DHT22;6316;48.118;-1.690;2022-11-02T09:02:36;12.30;99.90
12504;DHT22;6316;48.118;-1.690;2022-11-02T09:05:02;12.30;99.90
12504;DHT22;6316;48.118;-1.690;2022-11-02T09:07:27;12.40;99.90
12504;DHT22;6316;48.118;-1.690;2022-11-02T09:09:53;12.40;99.90
12504;DHT22;6316;48.118;-1.690;2022-11-02T09:12:19;12.50;99.90
12504;DHT22;6316;48.118;-1.690;2022-11-02T09:14:44;12.50;99.90
12504;DHT22;6316;48.118;-1.690;2022-11-02T09:17:10;12.60;99.90
12504;DHT22;6316;48.118;-1.690;2022-11-02T09:19:36;12.70;99.90
12504;DHT22;6316;48.118;-1.690;2022-11-02T09:22:01;12.70;99.90
12504;DHT22;6316;48.118;-1.690;2022-11-02T09:24:27;12.80;99.90
12504;DHT22;6316;48.118;-1.690;2022-11-02T09:26:52;12.80;99.90
12504;DHT22;6316;48.118;-1.690;2022-11-02T09:29:18;12.90;99.90
12504;DHT22;6316;48.118;-1.690;2022-11-02T09:31:44;12.90;99.90
12504;DHT22;6316;48.118;-1.690;2022-11-02T09:34:09;13.00;99.90
12504;DHT22;6316;48.118;-1.690;2022-11-02T09:36:35;13.10;99.90
12504;DHT22;6316;48.118;-1.690;2022-11-02T09:39:01;13.10;99.90
12504;DHT22;6316;48.118;-1.690;2022-11-02T09:41:38;13.10;99.90
12504;DHT22;6316;48.118;-1.690;2022-11-02T09:46:34;13.30;99.90
12504;DHT22;6316;48.118;-1.690;2022-11-02T09:49:27;13.40;99.90
12504;DHT22;6316;48.118;-1.690;2022-11-02T09:51:57;13.50;99.90
12504;DHT22;6316;48.118;-1.690;2022-11-02T09:54:35;13.60;99.90
12504;DHT22;6316;48.118;-1.690;2022-11-02T09:57:09;13.70;99.90
12504;DHT22;6316;48.118;-1.690;2022-11-02T09:59:36;13.80;99.90
12504;DHT22;6316;48.118;-1.690;2022-11-02T10:10:02;14.40;99.90
12504;DHT22;6316;48.118;-1.690;2022-11-02T10:15:38;14.80;99.90
12504;DHT22;6316;48.118;-1.690;2022-11-02T10:18:12;14.90;99.90
12504;DHT22;6316;48.118;-1.690;2022-11-02T10:20:43;14.90;99.90
12504;DHT22;6316;48.118;-1.690;2022-11-02T10:23:40;15.00;99.90
12504;DHT22;6316;48.118;-1.690;2022-11-02T10:26:12;15.00;99.90
12504;DHT22;6316;48.118;-1.690;2022-11-02T10:28:40;15.10;99.90
12504;DHT22;6316;48.118;-1.690;2022-11-02T10:31:55;15.20;99.90
12504;DHT22;6316;48.118;-1.690;2022-11-02T10:36:43;15.30;99.90
12504;DHT22;6316;48.118;-1.690;2022-11-02T10:44:55;15.30;99.90
12504;DHT22;6316;48.118;-1.690;2022-11-02T10:47:26;15.40;99.90
12504;DHT22;6316;48.118;-1.690;2022-11-02T10:52:23;15.50;99.90
12504;DHT22;6316;48.118;-1.690;2022-11-02T10:54:50;15.60;99.90
12504;DHT22;6316;48.118;-1.690;2022-11-02T10:57:21;15.60;99.90
12504;DHT22;6316;48.118;-1.690;2022-11-02T11:00:26;15.70;99.90
12504;DHT22;6316;48.118;-1.690;2022-11-02T11:03:14;15.80;99.90
12504;DHT22;6316;48.118;-1.690;2022-11-02T11:08:42;15.90;99.90
12504;DHT22;6316;48.118;-1.690;2022-11-02T11:11:13;15.90;99.90
12504;DHT22;6316;48.118;-1.690;2022-11-02T11:13:41;16.00;99.90
12504;DHT22;6316;48.118;-1.690;2022-11-02T11:16:08;15.90;99.90
12504;DHT22;6316;48.118;-1.690;2022-11-02T11:18:34;15.90;99.90
12504;DHT22;6316;48.118;-1.690;2022-11-02T11:21:02;15.90;99.90
12504;DHT22;6316;48.118;-1.690;2022-11-02T11:23:28;16.00;99.90
12504;DHT22;6316;48.118;-1.690;2022-11-02T11:26:05;16.00;99.90
12504;DHT22;6316;48.118;-1.690;2022-11-02T11:28:38;16.10;99.90
12504;DHT22;6316;48.118;-1.690;2022-11-02T11:31:14;16.10;99.90
12504;DHT22;6316;48.118;-1.690;2022-11-02T11:33:43;16.10;99.90
12504;DHT22;6316;48.118;-1.690;2022-11-02T11:36:10;16.20;99.90
12504;DHT22;6316;48.118;-1.690;2022-11-02T11:38:48;16.20;99.90
12504;DHT22;6316;48.118;-1.690;2022-11-02T11:41:15;16.30;99.90
12504;DHT22;6316;48.118;-1.690;2022-11-02T11:43:42;16.30;99.90
12504;DHT22;6316;48.118;-1.690;2022-11-02T11:46:12;16.40;99.90
12504;DHT22;6316;48.118;-1.690;2022-11-02T11:48:52;16.40;99.90
12504;DHT22;6316;48.118;-1.690;2022-11-02T11:51:28;16.50;99.90
12504;DHT22;6316;48.118;-1.690;2022-11-02T11:56:42;16.60;99.90
12504;DHT22;6316;48.118;-1.690;2022-11-02T11:59:22;16.60;99.90
12504;DHT22;6316;48.118;-1.690;2022-11-02T12:01:48;16.60;99.90
12504;DHT22;6316;48.118;-1.690;2022-11-02T12:04:26;16.70;99.90
12504;DHT22;6316;48.118;-1.690;2022-11-02T12:09:51;17.00;99.90
12504;DHT22;6316;48.118;-1.690;2022-11-02T12:20:49;17.10;99.90
12504;DHT22;6316;48.118;-1.690;2022-11-02T12:26:26;17.00;99.90
12504;DHT22;6316;48.118;-1.690;2022-11-02T12:40:12;17.00;99.90
12504;DHT22;6316;48.118;-1.690;2022-11-02T12:42:55;16.90;99.90
12504;DHT22;6316;48.118;-1.690;2022-11-02T12:46:08;16.80;99.90
12504;DHT22;6316;48.118;-1.690;2022-11-02T12:51:22;16.60;99.90
12504;DHT22;6316;48.118;-1.690;2022-11-02T12:53:53;16.50;99.90
12504;DHT22;6316;48.118;-1.690;2022-11-02T12:59:34;16.20;99.90
12504;DHT22;6316;48.118;-1.690;2022-11-02T13:02:25;16.00;99.90
12504;DHT22;6316;48.118;-1.690;2022-11-02T13:04:57;15.90;99.90
12504;DHT22;6316;48.118;-1.690;2022-11-02T13:07:57;15.90;99.90
12504;DHT22;6316;48.118;-1.690;2022-11-02T13:10:50;15.90;99.90
12504;DHT22;6316;48.118;-1.690;2022-11-02T13:13:16;15.90;99.90
12504;DHT22;6316;48.118;-1.690;2022-11-02T13:15:45;15.90;99.90
12504;DHT22;6316;48.118;-1.690;2022-11-02T13:18:18;16.00;99.90
12504;DHT22;6316;48.118;-1.690;2022-11-02T13:20:52;16.00;99.90
12504;DHT22;6316;48.118;-1.690;2022-11-02T13:26:01;16.10;99.90
12504;DHT22;6316;48.118;-1.690;2022-11-02T13:28:40;16.20;99.90
12504;DHT22;6316;48.118;-1.690;2022-11-02T13:31:15;16.30;99.90
12504;DHT22;6316;48.118;-1.690;2022-11-02T13:33:47;16.40;99.90
12504;DHT22;6316;48.118;-1.690;2022-11-02T13:36:14;16.50;99.90
12504;DHT22;6316;48.118;-1.690;2022-11-02T13:38:51;16.60;99.90
12504;DHT22;6316;48.118;-1.690;2022-11-02T13:41:47;16.70;99.90
12504;DHT22;6316;48.118;-1.690;2022-11-02T13:49:51;16.70;99.90
12504;DHT22;6316;48.118;-1.690;2022-11-02T13:52:36;16.70;99.90
12504;DHT22;6316;48.118;-1.690;2022-11-02T13:55:04;16.70;99.90
12504;DHT22;6316;48.118;-1.690;2022-11-02T13:59:57;16.70;99.90
12504;DHT22;6316;48.118;-1.690;2022-11-02T14:02:24;16.80;99.90
12504;DHT22;6316;48.118;-1.690;2022-11-02T14:04:50;16.80;99.90
12504;DHT22;6316;48.118;-1.690;2022-11-02T14:07:33;16.90;99.90
12504;DHT22;6316;48.118;-1.690;2022-11-02T14:10:29;16.90;99.90
12504;DHT22;6316;48.118;-1.690;2022-11-02T14:12:56;16.90;99.90
12504;DHT22;6316;48.118;-1.690;2022-11-02T14:25:48;16.90;99.90
12504;DHT22;6316;48.118;-1.690;2022-11-02T14:30:47;16.90;99.90
12504;DHT22;6316;48.118;-1.690;2022-11-02T14:33:37;16.90;99.90
12504;DHT22;6316;48.118;-1.690;2022-11-02T14:36:22;17.00;99.90
12504;DHT22;6316;48.118;-1.690;2022-11-02T14:42:17;17.00;99.90
12504;DHT22;6316;48.118;-1.690;2022-11-02T14:47:57;17.00;99.90
12504;DHT22;6316;48.118;-1.690;2022-11-02T14:50:24;17.10;99.90
12504;DHT22;6316;48.118;-1.690;2022-11-02T14:53:19;17.10;99.90
12504;DHT22;6316;48.118;-1.690;2022-11-02T14:55:52;17.10;99.90
12504;DHT22;6316;48.118;-1.690;2022-11-02T14:58:19;17.10;99.90
12504;DHT22;6316;48.118;-1.690;2022-11-02T15:08:57;17.10;99.90
12504;DHT22;6316;48.118;-1.690;2022-11-02T15:11:43;17.10;99.90
12504;DHT22;6316;48.118;-1.690;2022-11-02T15:17:01;17.10;99.90
12504;DHT22;6316;48.118;-1.690;2022-11-02T15:23:03;17.10;99.90
12504;DHT22;6316;48.118;-1.690;2022-11-02T15:25:34;17.10;99.90
12504;DHT22;6316;48.118;-1.690;2022-11-02T15:28:15;17.00;99.90
12504;DHT22;6316;48.118;-1.690;2022-11-02T15:30:54;17.00;99.90
12504;DHT22;6316;48.118;-1.690;2022-11-02T15:33:56;17.00;99.90
12504;DHT22;6316;48.118;-1.690;2022-11-02T15:36:32;17.00;99.90
12504;DHT22;6316;48.118;-1.690;2022-11-02T15:39:02;16.90;99.90
12504;DHT22;6316;48.118;-1.690;2022-11-02T15:41:44;16.90;99.90
12504;DHT22;6316;48.118;-1.690;2022-11-02T15:47:34;16.90;99.90
12504;DHT22;6316;48.118;-1.690;2022-11-02T15:53:19;16.70;99.90
12504;DHT22;6316;48.118;-1.690;2022-11-02T15:58:41;16.60;99.90
12504;DHT22;6316;48.118;-1.690;2022-11-02T16:01:17;16.60;99.90
12504;DHT22;6316;48.118;-1.690;2022-11-02T16:03:48;16.60;99.90
12504;DHT22;6316;48.118;-1.690;2022-11-02T16:06:27;16.60;99.90
12504;DHT22;6316;48.118;-1.690;2022-11-02T16:08:56;16.60;99.90
12504;DHT22;6316;48.118;-1.690;2022-11-02T16:11:23;16.60;99.90
12504;DHT22;6316;48.118;-1.690;2022-11-02T16:13:49;16.60;99.90
12504;DHT22;6316;48.118;-1.690;2022-11-02T16:16:18;16.60;99.90
12504;DHT22;6316;48.118;-1.690;2022-11-02T16:18:48;16.60;99.90
12504;DHT22;6316;48.118;-1.690;2022-11-02T16:21:17;16.50;99.90
12504;DHT22;6316;48.118;-1.690;2022-11-02T16:23:53;16.50;99.90
12504;DHT22;6316;48.118;-1.690;2022-11-02T16:26:21;16.40;99.90
12504;DHT22;6316;48.118;-1.690;2022-11-02T16:28:53;16.30;99.90
12504;DHT22;6316;48.118;-1.690;2022-11-02T16:31:24;16.30;99.90
12504;DHT22;6316;48.118;-1.690;2022-11-02T16:36:33;16.20;99.90
12504;DHT22;6316;48.118;-1.690;2022-11-02T16:39:16;16.10;99.90
12504;DHT22;6316;48.118;-1.690;2022-11-02T16:41:50;16.00;99.90
12504;DHT22;6316;48.118;-1.690;2022-11-02T16:44:29;16.00;99.90
12504;DHT22;6316;48.118;-1.690;2022-11-02T16:47:16;15.90;99.90
12504;DHT22;6316;48.118;-1.690;2022-11-02T16:52:23;15.80;99.90
12504;DHT22;6316;48.118;-1.690;2022-11-02T16:54:50;15.80;99.90
12504;DHT22;6316;48.118;-1.690;2022-11-02T16:57:30;15.70;99.90
12504;DHT22;6316;48.118;-1.690;2022-11-02T16:59:59;15.70;99.90
12504;DHT22;6316;48.118;-1.690;2022-11-02T17:02:37;15.60;99.90
12504;DHT22;6316;48.118;-1.690;2022-11-02T17:05:05;15.60;99.90
12504;DHT22;6316;48.118;-1.690;2022-11-02T17:07:43;15.50;99.90
12504;DHT22;6316;48.118;-1.690;2022-11-02T17:10:19;15.50;99.90
12504;DHT22;6316;48.118;-1.690;2022-11-02T17:12:48;15.40;99.90
12504;DHT22;6316;48.118;-1.690;2022-11-02T17:15:44;15.40;99.90
12504;DHT22;6316;48.118;-1.690;2022-11-02T17:18:22;15.40;99.90
12504;DHT22;6316;48.118;-1.690;2022-11-02T17:23:36;15.40;99.90
12504;DHT22;6316;48.118;-1.690;2022-11-02T17:28:48;15.30;99.90
12504;DHT22;6316;48.118;-1.690;2022-11-02T17:31:34;15.30;99.90
12504;DHT22;6316;48.118;-1.690;2022-11-02T17:34:22;15.30;99.90
12504;DHT22;6316;48.118;-1.690;2022-11-02T17:36:49;15.30;99.90
12504;DHT22;6316;48.118;-1.690;2022-11-02T17:39:16;15.30;99.90
12504;DHT22;6316;48.118;-1.690;2022-11-02T17:41:43;15.30;99.90
12504;DHT22;6316;48.118;-1.690;2022-11-02T17:44:27;15.30;99.90
12504;DHT22;6316;48.118;-1.690;2022-11-02T17:46:54;15.30;99.90
12504;DHT22;6316;48.118;-1.690;2022-11-02T17:49:19;15.30;99.90
12504;DHT22;6316;48.118;-1.690;2022-11-02T17:51:46;15.30;99.90
12504;DHT22;6316;48.118;-1.690;2022-11-02T17:54:12;15.30;99.90
12504;DHT22;6316;48.118;-1.690;2022-11-02T17:56:39;15.30;99.90
12504;DHT22;6316;48.118;-1.690;2022-11-02T17:59:04;15.30;99.90
12504;DHT22;6316;48.118;-1.690;2022-11-02T18:01:30;15.30;99.90
12504;DHT22;6316;48.118;-1.690;2022-11-02T18:03:56;15.30;99.90
12504;DHT22;6316;48.118;-1.690;2022-11-02T18:06:22;15.30;99.90
12504;DHT22;6316;48.118;-1.690;2022-11-02T18:08:48;15.30;99.90
12504;DHT22;6316;48.118;-1.690;2022-11-02T18:11:34;15.30;99.90
12504;DHT22;6316;48.118;-1.690;2022-11-02T18:13:59;15.30;99.90
12504;DHT22;6316;48.118;-1.690;2022-11-02T18:16:25;15.30;99.90
12504;DHT22;6316;48.118;-1.690;2022-11-02T18:18:51;15.30;99.90
12504;DHT22;6316;48.118;-1.690;2022-11-02T18:21:16;15.30;99.90
12504;DHT22;6316;48.118;-1.690;2022-11-02T18:23:42;15.30;99.90
12504;DHT22;6316;48.118;-1.690;2022-11-02T18:26:11;15.30;99.90
12504;DHT22;6316;48.118;-1.690;2022-11-02T18:28:37;15.30;99.90
12504;DHT22;6316;48.118;-1.690;2022-11-02T18:31:04;15.30;99.90
12504;DHT22;6316;48.118;-1.690;2022-11-02T18:33:31;15.30;99.90
12504;DHT22;6316;48.118;-1.690;2022-11-02T18:36:07;15.30;99.90
12504;DHT22;6316;48.118;-1.690;2022-11-02T18:38:33;15.20;99.90